Szczecin, Poland

12:24 PM CEST on October 25, 2014 (GMT +0200)
Niebuszewo | Change Station
CLOSE
Current Station
Personal Weather Station
Location: Szczecin, ZACHODNIOPOMORSKIE
Elevation: 39 ft
Nearby Weather Stations

Elev 39 ft 53.44 °N, 14.56 °E | Updated 4 minutes ago

Mostly Cloudy
Mostly Cloudy
39.7 °F
Feels Like 35 °F
N
7.5
Wind Variable Wind from East
Gusts 13.6 mph

Today
High -- | Low -- °F
--% Chance of Precip.
Yesterday
High -- | Low -- °F
Precip. -- in
7:46 AM 5:43 PM
New Moon, 2% visible
Pressure 30.12 in
Visibility 4.3 miles
Clouds Mostly Cloudy 800 ft
Windchill 35 °F
Dew Point 37 °F
Humidity 90%
Rainfall 0.00 in
Snow Depth Not available.
UV 1 out of 12
Pollen Not available.
Air Quality Not available.
Flu Activity Not available.
METAR EDAH 251020Z 14013KT 7000 BKN008 05/03 Q1020

More Conditions Fewer Conditions

Pressure 30.12 in
Visibility 4.3 miles
Clouds Mostly Cloudy 800 ft
Windchill 35 °F
Dew Point 37 °F
Humidity 90%
Rainfall 0.00 in
Snow Depth Not available.
UV 1 out of 12
Pollen Not available.
Air Quality Not available.
Flu Activity Not available.
METAR EDAH 251020Z 14013KT 7000 BKN008 05/03 Q1020

More Conditions Fewer Conditions

10-Day Weather Forecast

Almanac

Astronomy

Oct. 25, 2014 Rise Set
Actual Time 7:46 AM CEST 5:43 PM CEST
Civil Twilight 7:10 AM CEST 6:19 PM CEST
Nautical Twilight 6:29 AM CEST 7:00 PM CEST
Astronomical Twilight 5:49 AM CEST 7:40 PM CEST
Moon 9:17 AM CEST 6:42 PM CEST
Length of Visible Light 11h 09m
Length of Day
9h 57m
Tomorrow will be 3m 59s shorter.
New Moon, 2% of the Moon is Illuminated
Today
New Moon
Oct 30
First Quarter
Nov 6
Full
Nov 14
Last Quarter
Nov 22
New

Yesterday's Extremes

Country Highs Country Lows

Community

WunderPhotos

Upload Photos

1,764,806 photos uploaded!

Nearby

Snow Depth

Not available.

Earthquake Activity

City Distance Mag. Time & Date
No recent earthquake activity has been reported nearby.
Minimum magnitude displayed is 2.5.

Coastal Water Temperatures

Place Temperature
No Stations Reporting

Nearby Weather Stations